createdAt,value
2018-08-07T21:26:13.418Z,11.53
2018-08-07T21:28:41.051Z,10.57
2018-08-07T21:31:08.733Z,9.87
2018-08-07T21:33:36.294Z,11.40
2018-08-07T21:36:04.284Z,15.10
2018-08-07T21:38:31.667Z,11.37
2018-08-07T21:40:59.057Z,9.43
2018-08-07T21:43:26.421Z,11.97
2018-08-07T21:45:53.736Z,10.90
2018-08-07T21:48:21.086Z,8.67
2018-08-07T21:50:48.733Z,13.90
2018-08-07T21:53:16.183Z,12.80
2018-08-07T21:55:44.419Z,12.23
2018-08-07T21:58:11.843Z,9.50
2018-08-07T22:00:44.885Z,8.93
2018-08-07T22:03:12.299Z,11.93
2018-08-07T22:05:39.830Z,12.03
2018-08-07T22:08:08.010Z,10.50
2018-08-07T22:10:35.417Z,15.00
2018-08-07T22:13:02.836Z,12.43
2018-08-07T22:15:30.187Z,9.97
2018-08-07T22:17:57.659Z,14.83
2018-08-07T22:20:25.351Z,14.70
2018-08-07T22:22:52.899Z,15.17
2018-08-07T22:25:20.300Z,11.80
2018-08-07T22:27:47.767Z,11.73
2018-08-07T22:30:17.625Z,13.53
2018-08-07T22:32:45.009Z,20.10
2018-08-07T22:35:12.346Z,16.67
2018-08-07T22:37:39.829Z,14.40
2018-08-07T22:40:07.511Z,16.60
2018-08-07T22:42:35.970Z,14.07
2018-08-07T22:45:04.235Z,12.93
2018-08-07T22:47:33.250Z,13.53
2018-08-07T22:50:00.845Z,18.00
2018-08-07T22:52:28.346Z,17.17
2018-08-07T22:54:55.830Z,22.47
2018-08-07T22:57:23.149Z,16.70
2018-08-07T22:59:50.638Z,22.93
2018-08-07T23:02:17.976Z,21.67
2018-08-07T23:04:45.440Z,26.57
2018-08-07T23:07:12.894Z,24.33
2018-08-07T23:09:40.330Z,25.13
2018-08-07T23:12:07.721Z,17.53
2018-08-07T23:14:35.118Z,19.13
2018-08-07T23:17:02.500Z,12.53
2018-08-07T23:19:29.952Z,20.03
2018-08-07T23:21:57.381Z,23.27
2018-08-07T23:24:24.881Z,19.93
2018-08-07T23:26:52.356Z,17.87
2018-08-07T23:29:19.671Z,18.40
2018-08-07T23:31:47.602Z,19.73
2018-08-07T23:34:14.931Z,18.63
2018-08-07T23:36:42.257Z,17.43
2018-08-07T23:39:10.144Z,14.73
2018-08-07T23:41:37.512Z,15.67
2018-08-07T23:44:04.877Z,18.77
2018-08-07T23:46:32.305Z,19.70
2018-08-07T23:48:59.721Z,16.60
2018-08-07T23:51:27.077Z,18.63
2018-08-07T23:53:54.704Z,22.40
2018-08-07T23:56:21.996Z,16.17
2018-08-07T23:58:49.582Z,22.17
